sensor_id;sensor_type;location;lat;lon;timestamp;P1;durP1;ratioP1;P2;durP2;ratioP2
75516;SDS011;64097;52.548;13.406;2022-12-20T06:01:37;15.70;;;12.10;;
75516;SDS011;64097;52.548;13.406;2022-12-20T06:04:03;16.85;;;11.73;;
75516;SDS011;64097;52.548;13.406;2022-12-20T06:06:29;14.82;;;11.38;;
75516;SDS011;64097;52.548;13.406;2022-12-20T06:08:54;16.83;;;11.70;;
75516;SDS011;64097;52.548;13.406;2022-12-20T06:11:20;16.10;;;11.43;;
75516;SDS011;64097;52.548;13.406;2022-12-20T06:13:47;16.92;;;12.02;;
75516;SDS011;64097;52.548;13.406;2022-12-20T06:16:13;16.42;;;11.88;;
75516;SDS011;64097;52.548;13.406;2022-12-20T06:18:39;16.52;;;12.15;;
75516;SDS011;64097;52.548;13.406;2022-12-20T06:21:05;14.45;;;11.13;;
75516;SDS011;64097;52.548;13.406;2022-12-20T06:23:30;15.80;;;12.10;;
75516;SDS011;64097;52.548;13.406;2022-12-20T06:25:56;13.07;;;10.07;;
75516;SDS011;64097;52.548;13.406;2022-12-20T06:28:22;15.38;;;11.60;;
75516;SDS011;64097;52.548;13.406;2022-12-20T06:30:51;13.63;;;10.40;;
75516;SDS011;64097;52.548;13.406;2022-12-20T06:33:20;15.77;;;11.77;;
75516;SDS011;64097;52.548;13.406;2022-12-20T06:35:48;14.80;;;11.45;;
75516;SDS011;64097;52.548;13.406;2022-12-20T06:38:14;15.85;;;12.02;;
75516;SDS011;64097;52.548;13.406;2022-12-20T06:40:40;16.48;;;11.73;;
75516;SDS011;64097;52.548;13.406;2022-12-20T06:43:05;14.60;;;11.32;;
75516;SDS011;64097;52.548;13.406;2022-12-20T06:45:31;13.90;;;10.80;;
75516;SDS011;64097;52.548;13.406;2022-12-20T06:47:57;13.73;;;11.18;;
75516;SDS011;64097;52.548;13.406;2022-12-20T06:50:23;15.40;;;11.15;;
75516;SDS011;64097;52.548;13.406;2022-12-20T06:52:49;14.45;;;11.05;;
75516;SDS011;64097;52.548;13.406;2022-12-20T06:55:15;14.80;;;11.63;;
75516;SDS011;64097;52.548;13.406;2022-12-20T06:57:41;15.90;;;11.70;;
75516;SDS011;64097;52.548;13.406;2022-12-20T07:00:07;18.33;;;12.77;;
75516;SDS011;64097;52.548;13.406;2022-12-20T07:02:36;14.40;;;11.10;;
75516;SDS011;64097;52.548;13.406;2022-12-20T07:05:02;15.73;;;11.25;;
75516;SDS011;64097;52.548;13.406;2022-12-20T07:07:28;15.63;;;11.73;;
75516;SDS011;64097;52.548;13.406;2022-12-20T07:09:54;14.30;;;11.32;;
75516;SDS011;64097;52.548;13.406;2022-12-20T07:12:20;15.40;;;11.40;;
75516;SDS011;64097;52.548;13.406;2022-12-20T07:14:46;14.80;;;12.07;;
75516;SDS011;64097;52.548;13.406;2022-12-20T07:17:13;14.98;;;11.00;;
75516;SDS011;64097;52.548;13.406;2022-12-20T07:19:39;16.58;;;11.85;;
75516;SDS011;64097;52.548;13.406;2022-12-20T07:22:05;16.23;;;12.00;;
75516;SDS011;64097;52.548;13.406;2022-12-20T07:24:32;15.68;;;11.85;;
75516;SDS011;64097;52.548;13.406;2022-12-20T07:26:58;15.43;;;12.00;;
75516;SDS011;64097;52.548;13.406;2022-12-20T07:29:24;15.18;;;12.10;;
75516;SDS011;64097;52.548;13.406;2022-12-20T07:31:50;15.20;;;11.65;;
75516;SDS011;64097;52.548;13.406;2022-12-20T07:34:16;15.57;;;11.52;;
75516;SDS011;64097;52.548;13.406;2022-12-20T07:36:43;15.73;;;11.85;;
75516;SDS011;64097;52.548;13.406;2022-12-20T07:39:09;16.67;;;12.25;;
75516;SDS011;64097;52.548;13.406;2022-12-20T07:41:35;15.52;;;11.93;;
75516;SDS011;64097;52.548;13.406;2022-12-20T07:44:00;16.38;;;12.27;;
75516;SDS011;64097;52.548;13.406;2022-12-20T07:46:26;16.38;;;11.98;;
75516;SDS011;64097;52.548;13.406;2022-12-20T07:48:52;14.77;;;11.70;;
75516;SDS011;64097;52.548;13.406;2022-12-20T07:51:28;15.27;;;11.77;;
75516;SDS011;64097;52.548;13.406;2022-12-20T07:54:44;17.52;;;12.48;;
75516;SDS011;64097;52.548;13.406;2022-12-20T07:56:59;15.68;;;11.82;;
75516;SDS011;64097;52.548;13.406;2022-12-20T07:59:39;16.90;;;11.98;;
75516;SDS011;64097;52.548;13.406;2022-12-20T08:02:10;18.50;;;12.85;;
75516;SDS011;64097;52.548;13.406;2022-12-20T08:04:41;17.85;;;12.73;;
75516;SDS011;64097;52.548;13.406;2022-12-20T08:07:07;15.38;;;11.57;;
75516;SDS011;64097;52.548;13.406;2022-12-20T08:09:35;16.40;;;11.75;;
75516;SDS011;64097;52.548;13.406;2022-12-20T08:12:04;16.48;;;12.77;;
75516;SDS011;64097;52.548;13.406;2022-12-20T08:14:32;16.67;;;12.63;;
75516;SDS011;64097;52.548;13.406;2022-12-20T08:16:58;16.52;;;12.82;;
75516;SDS011;64097;52.548;13.406;2022-12-20T08:19:24;17.08;;;12.30;;
75516;SDS011;64097;52.548;13.406;2022-12-20T08:21:50;16.15;;;12.48;;
75516;SDS011;64097;52.548;13.406;2022-12-20T08:24:15;18.35;;;13.13;;
75516;SDS011;64097;52.548;13.406;2022-12-20T08:26:41;17.20;;;13.05;;
75516;SDS011;64097;52.548;13.406;2022-12-20T08:29:07;17.88;;;12.88;;
75516;SDS011;64097;52.548;13.406;2022-12-20T08:31:36;16.65;;;12.57;;
75516;SDS011;64097;52.548;13.406;2022-12-20T08:34:02;16.90;;;12.90;;
75516;SDS011;64097;52.548;13.406;2022-12-20T08:36:29;15.32;;;11.75;;
75516;SDS011;64097;52.548;13.406;2022-12-20T08:38:54;17.55;;;12.50;;
75516;SDS011;64097;52.548;13.406;2022-12-20T08:41:20;17.63;;;13.15;;
75516;SDS011;64097;52.548;13.406;2022-12-20T08:43:46;16.30;;;12.70;;
75516;SDS011;64097;52.548;13.406;2022-12-20T08:46:12;17.15;;;12.88;;
75516;SDS011;64097;52.548;13.406;2022-12-20T08:48:38;14.18;;;10.80;;
75516;SDS011;64097;52.548;13.406;2022-12-20T08:51:05;16.25;;;11.95;;
75516;SDS011;64097;52.548;13.406;2022-12-20T08:53:33;15.15;;;11.93;;
75516;SDS011;64097;52.548;13.406;2022-12-20T08:56:06;17.85;;;13.38;;
75516;SDS011;64097;52.548;13.406;2022-12-20T08:58:37;19.35;;;12.98;;
75516;SDS011;64097;52.548;13.406;2022-12-20T09:01:08;18.60;;;13.25;;
75516;SDS011;64097;52.548;13.406;2022-12-20T09:03:36;17.63;;;13.50;;
75516;SDS011;64097;52.548;13.406;2022-12-20T09:06:07;15.90;;;11.43;;
75516;SDS011;64097;52.548;13.406;2022-12-20T09:08:38;14.95;;;11.65;;
75516;SDS011;64097;52.548;13.406;2022-12-20T09:13:31;18.23;;;13.52;;
75516;SDS011;64097;52.548;13.406;2022-12-20T09:16:01;17.83;;;13.20;;
75516;SDS011;64097;52.548;13.406;2022-12-20T09:18:28;16.85;;;12.93;;
75516;SDS011;64097;52.548;13.406;2022-12-20T09:20:55;16.08;;;11.93;;
75516;SDS011;64097;52.548;13.406;2022-12-20T09:23:25;16.15;;;12.40;;
75516;SDS011;64097;52.548;13.406;2022-12-20T09:25:51;16.90;;;12.60;;
75516;SDS011;64097;52.548;13.406;2022-12-20T09:28:17;16.38;;;12.38;;
75516;SDS011;64097;52.548;13.406;2022-12-20T09:30:42;14.80;;;11.57;;
75516;SDS011;64097;52.548;13.406;2022-12-20T09:33:08;19.05;;;13.02;;
75516;SDS011;64097;52.548;13.406;2022-12-20T09:35:34;16.00;;;12.40;;
75516;SDS011;64097;52.548;13.406;2022-12-20T09:38:00;18.08;;;12.38;;
75516;SDS011;64097;52.548;13.406;2022-12-20T09:40:26;16.90;;;12.63;;
75516;SDS011;64097;52.548;13.406;2022-12-20T09:42:55;16.58;;;12.32;;
75516;SDS011;64097;52.548;13.406;2022-12-20T09:45:27;16.63;;;12.13;;
75516;SDS011;64097;52.548;13.406;2022-12-20T09:47:55;16.98;;;12.43;;
75516;SDS011;64097;52.548;13.406;2022-12-20T09:50:24;17.05;;;12.32;;
75516;SDS011;64097;52.548;13.406;2022-12-20T09:55:53;16.27;;;11.65;;
75516;SDS011;64097;52.548;13.406;2022-12-20T10:01:24;17.90;;;12.65;;
75516;SDS011;64097;52.548;13.406;2022-12-20T10:03:52;17.25;;;12.93;;
75516;SDS011;64097;52.548;13.406;2022-12-20T10:08:58;15.80;;;12.07;;
75516;SDS011;64097;52.548;13.406;2022-12-20T10:16:52;17.45;;;12.80;;
75516;SDS011;64097;52.548;13.406;2022-12-20T10:19:26;18.15;;;13.10;;
75516;SDS011;64097;52.548;13.406;2022-12-20T10:22:19;21.35;;;14.90;;
75516;SDS011;64097;52.548;13.406;2022-12-20T10:27:45;22.75;;;15.30;;
75516;SDS011;64097;52.548;13.406;2022-12-20T10:30:14;19.75;;;13.75;;
75516;SDS011;64097;52.548;13.406;2022-12-20T10:32:43;21.98;;;15.23;;
75516;SDS011;64097;52.548;13.406;2022-12-20T10:38:16;27.65;;;17.65;;
75516;SDS011;64097;52.548;13.406;2022-12-20T10:40:39;26.33;;;17.35;;
75516;SDS011;64097;52.548;13.406;2022-12-20T10:43:20;30.48;;;18.73;;
75516;SDS011;64097;52.548;13.406;2022-12-20T10:46:03;26.27;;;16.85;;
75516;SDS011;64097;52.548;13.406;2022-12-20T10:48:34;20.10;;;14.55;;
75516;SDS011;64097;52.548;13.406;2022-12-20T10:51:03;21.50;;;14.82;;
75516;SDS011;64097;52.548;13.406;2022-12-20T10:53:49;25.75;;;16.15;;
75516;SDS011;64097;52.548;13.406;2022-12-20T10:56:20;35.03;;;21.40;;
75516;SDS011;64097;52.548;13.406;2022-12-20T10:58:53;38.17;;;21.50;;
75516;SDS011;64097;52.548;13.406;2022-12-20T11:01:28;27.15;;;17.25;;
75516;SDS011;64097;52.548;13.406;2022-12-20T11:11:57;25.80;;;16.30;;
75516;SDS011;64097;52.548;13.406;2022-12-20T11:14:33;22.20;;;15.05;;
75516;SDS011;64097;52.548;13.406;2022-12-20T11:19:51;20.63;;;14.23;;
75516;SDS011;64097;52.548;13.406;2022-12-20T11:24:55;20.73;;;13.90;;
75516;SDS011;64097;52.548;13.406;2022-12-20T11:33:41;17.75;;;12.90;;
75516;SDS011;64097;52.548;13.406;2022-12-20T11:38:52;16.77;;;12.77;;
75516;SDS011;64097;52.548;13.406;2022-12-20T11:41:44;17.23;;;12.68;;
75516;SDS011;64097;52.548;13.406;2022-12-20T11:47:25;15.55;;;11.52;;
75516;SDS011;64097;52.548;13.406;2022-12-20T11:52:53;17.17;;;12.10;;
75516;SDS011;64097;52.548;13.406;2022-12-20T11:55:35;15.38;;;10.95;;
75516;SDS011;64097;52.548;13.406;2022-12-20T11:58:28;14.95;;;11.30;;
75516;SDS011;64097;52.548;13.406;2022-12-20T12:03:31;17.80;;;12.07;;
75516;SDS011;64097;52.548;13.406;2022-12-20T12:06:28;15.45;;;11.40;;
75516;SDS011;64097;52.548;13.406;2022-12-20T12:09:05;19.42;;;12.85;;
75516;SDS011;64097;52.548;13.406;2022-12-20T12:11:39;17.27;;;11.75;;
75516;SDS011;64097;52.548;13.406;2022-12-20T12:14:24;17.30;;;12.13;;
75516;SDS011;64097;52.548;13.406;2022-12-20T12:16:58;16.20;;;11.73;;
75516;SDS011;64097;52.548;13.406;2022-12-20T12:19:35;17.08;;;12.38;;
75516;SDS011;64097;52.548;13.406;2022-12-20T12:22:07;14.18;;;11.45;;
75516;SDS011;64097;52.548;13.406;2022-12-20T12:24:47;16.02;;;11.70;;
75516;SDS011;64097;52.548;13.406;2022-12-20T12:27:23;17.98;;;12.05;;
75516;SDS011;64097;52.548;13.406;2022-12-20T12:29:52;15.05;;;11.63;;
75516;SDS011;64097;52.548;13.406;2022-12-20T12:47:01;15.18;;;11.75;;
75516;SDS011;64097;52.548;13.406;2022-12-20T12:49:35;13.82;;;10.57;;
75516;SDS011;64097;52.548;13.406;2022-12-20T12:52:03;14.35;;;10.85;;
75516;SDS011;64097;52.548;13.406;2022-12-20T12:54:34;15.02;;;11.65;;
75516;SDS011;64097;52.548;13.406;2022-12-20T12:57:05;15.43;;;11.73;;
75516;SDS011;64097;52.548;13.406;2022-12-20T13:09:56;15.48;;;12.05;;
75516;SDS011;64097;52.548;13.406;2022-12-20T13:17:52;17.30;;;12.10;;
75516;SDS011;64097;52.548;13.406;2022-12-20T13:25:38;14.57;;;11.43;;
75516;SDS011;64097;52.548;13.406;2022-12-20T13:28:42;15.38;;;11.77;;
75516;SDS011;64097;52.548;13.406;2022-12-20T13:33:40;16.85;;;12.80;;
75516;SDS011;64097;52.548;13.406;2022-12-20T13:43:55;14.68;;;10.68;;
75516;SDS011;64097;52.548;13.406;2022-12-20T13:49:14;14.98;;;11.70;;
75516;SDS011;64097;52.548;13.406;2022-12-20T13:51:58;15.25;;;11.40;;
75516;SDS011;64097;52.548;13.406;2022-12-20T13:54:40;15.77;;;12.32;;
75516;SDS011;64097;52.548;13.406;2022-12-20T13:57:10;15.27;;;11.63;;
75516;SDS011;64097;52.548;13.406;2022-12-20T13:59:42;15.55;;;11.88;;
